sensor_id;sensor_type;location;lat;lon;timestamp;pressure;altitude;pressure_sealevel;temperature
72054;BMP280;59918;51.280;7.950;2023-07-16T00:01:30;97398.50;;;20.77
72054;BMP280;59918;51.280;7.950;2023-07-16T00:03:56;97402.72;;;20.73
72054;BMP280;59918;51.280;7.950;2023-07-16T00:06:24;97414.75;;;20.74
72054;BMP280;59918;51.280;7.950;2023-07-16T00:08:50;97409.50;;;20.74
72054;BMP280;59918;51.280;7.950;2023-07-16T00:11:17;97406.06;;;20.79
72054;BMP280;59918;51.280;7.950;2023-07-16T00:13:42;97413.63;;;20.80
72054;BMP280;59918;51.280;7.950;2023-07-16T00:16:08;97413.63;;;20.80
72054;BMP280;59918;51.280;7.950;2023-07-16T00:18:41;97413.63;;;20.80
72054;BMP280;59918;51.280;7.950;2023-07-16T00:21:07;97411.56;;;20.77
72054;BMP280;59918;51.280;7.950;2023-07-16T00:23:32;97420.47;;;20.76
72054;BMP280;59918;51.280;7.950;2023-07-16T00:26:03;97420.75;;;20.75
72054;BMP280;59918;51.280;7.950;2023-07-16T00:28:29;97410.28;;;20.75
72054;BMP280;59918;51.280;7.950;2023-07-16T00:30:54;97415.78;;;20.73
72054;BMP280;59918;51.280;7.950;2023-07-16T00:33:20;97412.97;;;20.70
72054;BMP280;59918;51.280;7.950;2023-07-16T00:35:51;97423.69;;;20.68
72054;BMP280;59918;51.280;7.950;2023-07-16T00:38:17;97415.88;;;20.63
72054;BMP280;59918;51.280;7.950;2023-07-16T00:40:42;97434.97;;;20.59
72054;BMP280;59918;51.280;7.950;2023-07-16T00:43:08;97443.91;;;20.53
72054;BMP280;59918;51.280;7.950;2023-07-16T00:45:39;97438.16;;;20.51
72054;BMP280;59918;51.280;7.950;2023-07-16T00:48:06;97440.53;;;20.48
72054;BMP280;59918;51.280;7.950;2023-07-16T00:50:32;97437.66;;;20.49
72054;BMP280;59918;51.280;7.950;2023-07-16T00:53:02;97432.44;;;20.49
72054;BMP280;59918;51.280;7.950;2023-07-16T00:55:29;97435.81;;;20.49
72054;BMP280;59918;51.280;7.950;2023-07-16T00:57:57;97424.88;;;20.48
72054;BMP280;59918;51.280;7.950;2023-07-16T01:00:38;97433.50;;;20.48
72054;BMP280;59918;51.280;7.950;2023-07-16T01:03:06;97434.03;;;20.45
72054;BMP280;59918;51.280;7.950;2023-07-16T01:06:04;97433.28;;;20.40
72054;BMP280;59918;51.280;7.950;2023-07-16T01:08:30;97434.94;;;20.31
72054;BMP280;59918;51.280;7.950;2023-07-16T01:10:56;97435.28;;;20.24
72054;BMP280;59918;51.280;7.950;2023-07-16T01:13:25;97422.78;;;20.16
72054;BMP280;59918;51.280;7.950;2023-07-16T01:15:51;97422.06;;;20.11
72054;BMP280;59918;51.280;7.950;2023-07-16T01:18:16;97437.47;;;20.08
72054;BMP280;59918;51.280;7.950;2023-07-16T01:20:41;97442.94;;;20.11
72054;BMP280;59918;51.280;7.950;2023-07-16T01:31:28;97450.75;;;20.11
72054;BMP280;59918;51.280;7.950;2023-07-16T01:33:55;97443.19;;;20.10
72054;BMP280;59918;51.280;7.950;2023-07-16T01:36:25;97435.38;;;20.05
72054;BMP280;59918;51.280;7.950;2023-07-16T01:38:51;97449.75;;;20.02
72054;BMP280;59918;51.280;7.950;2023-07-16T01:41:17;97457.34;;;19.99
72054;BMP280;59918;51.280;7.950;2023-07-16T01:43:42;97460.78;;;19.94
72054;BMP280;59918;51.280;7.950;2023-07-16T01:46:15;97468.41;;;19.86
72054;BMP280;59918;51.280;7.950;2023-07-16T01:48:40;97459.56;;;19.82
72054;BMP280;59918;51.280;7.950;2023-07-16T01:51:05;97460.59;;;19.81
72054;BMP280;59918;51.280;7.950;2023-07-16T01:53:31;97456.94;;;19.77
72054;BMP280;59918;51.280;7.950;2023-07-16T01:55:56;97466.63;;;19.67
72054;BMP280;59918;51.280;7.950;2023-07-16T01:58:27;97469.03;;;19.58
72054;BMP280;59918;51.280;7.950;2023-07-16T02:00:53;97473.22;;;19.49
72054;BMP280;59918;51.280;7.950;2023-07-16T02:03:18;97482.88;;;19.44
72054;BMP280;59918;51.280;7.950;2023-07-16T02:05:43;97479.25;;;19.40
72054;BMP280;59918;51.280;7.950;2023-07-16T02:08:08;97486.84;;;19.37
72054;BMP280;59918;51.280;7.950;2023-07-16T02:10:40;97481.13;;;19.35
72054;BMP280;59918;51.280;7.950;2023-07-16T02:13:05;97478.56;;;19.25
72054;BMP280;59918;51.280;7.950;2023-07-16T02:15:30;97488.19;;;19.19
72054;BMP280;59918;51.280;7.950;2023-07-16T02:17:56;97486.13;;;19.11
72054;BMP280;59918;51.280;7.950;2023-07-16T02:20:28;97481.22;;;19.05
72054;BMP280;59918;51.280;7.950;2023-07-16T02:22:53;97486.97;;;18.97
72054;BMP280;59918;51.280;7.950;2023-07-16T02:25:18;97486.41;;;18.90
72054;BMP280;59918;51.280;7.950;2023-07-16T02:27:43;97493.44;;;18.85
72054;BMP280;59918;51.280;7.950;2023-07-16T02:30:09;97502.03;;;18.80
72054;BMP280;59918;51.280;7.950;2023-07-16T02:32:40;97505.16;;;18.77
72054;BMP280;59918;51.280;7.950;2023-07-16T02:35:06;97514.31;;;18.70
72054;BMP280;59918;51.280;7.950;2023-07-16T02:37:32;97520.00;;;18.67
72054;BMP280;59918;51.280;7.950;2023-07-16T02:40:01;97522.09;;;18.65
72054;BMP280;59918;51.280;7.950;2023-07-16T02:42:26;97521.06;;;18.61
72054;BMP280;59918;51.280;7.950;2023-07-16T02:44:52;97529.38;;;18.63
72054;BMP280;59918;51.280;7.950;2023-07-16T02:47:17;97524.44;;;18.62
72054;BMP280;59918;51.280;7.950;2023-07-16T02:49:42;97522.34;;;18.63
72054;BMP280;59918;51.280;7.950;2023-07-16T02:52:07;97521.06;;;18.61
72054;BMP280;59918;51.280;7.950;2023-07-16T02:54:34;97525.75;;;18.59
72054;BMP280;59918;51.280;7.950;2023-07-16T02:57:05;97524.44;;;18.57
72054;BMP280;59918;51.280;7.950;2023-07-16T02:59:30;97536.16;;;18.49
72054;BMP280;59918;51.280;7.950;2023-07-16T03:01:56;97532.00;;;18.48
72054;BMP280;59918;51.280;7.950;2023-07-16T03:04:21;97533.28;;;18.46
72054;BMP280;59918;51.280;7.950;2023-07-16T03:06:49;97540.31;;;18.45
72054;BMP280;59918;51.280;7.950;2023-07-16T03:09:15;97537.19;;;18.43
72054;BMP280;59918;51.280;7.950;2023-07-16T03:11:40;97544.19;;;18.38
72054;BMP280;59918;51.280;7.950;2023-07-16T03:14:05;97560.09;;;18.36
72054;BMP280;59918;51.280;7.950;2023-07-16T03:16:30;97544.72;;;18.35
72054;BMP280;59918;51.280;7.950;2023-07-16T03:18:56;97547.09;;;18.36
72054;BMP280;59918;51.280;7.950;2023-07-16T03:21:27;97551.50;;;18.31
72054;BMP280;59918;51.280;7.950;2023-07-16T03:23:52;97566.81;;;18.23
72054;BMP280;59918;51.280;7.950;2023-07-16T03:26:18;97553.81;;;18.23
72054;BMP280;59918;51.280;7.950;2023-07-16T03:28:43;97553.03;;;18.22
72054;BMP280;59918;51.280;7.950;2023-07-16T03:31:08;97554.06;;;18.21
72054;BMP280;59918;51.280;7.950;2023-07-16T03:33:39;97555.88;;;18.21
72054;BMP280;59918;51.280;7.950;2023-07-16T03:36:04;97562.13;;;18.20
72054;BMP280;59918;51.280;7.950;2023-07-16T03:38:29;97566.81;;;18.18
72054;BMP280;59918;51.280;7.950;2023-07-16T03:40:55;97583.47;;;18.22
72054;BMP280;59918;51.280;7.950;2023-07-16T03:43:20;97579.31;;;18.26
72054;BMP280;59918;51.280;7.950;2023-07-16T03:45:51;97577.75;;;18.25
72054;BMP280;59918;51.280;7.950;2023-07-16T03:48:16;97590.22;;;18.23
72054;BMP280;59918;51.280;7.950;2023-07-16T03:50:41;97585.31;;;18.21
72054;BMP280;59918;51.280;7.950;2023-07-16T03:53:07;97592.06;;;18.17
72054;BMP280;59918;51.280;7.950;2023-07-16T03:55:33;97583.72;;;18.15
72054;BMP280;59918;51.280;7.950;2023-07-16T03:58:01;97593.09;;;18.11
72054;BMP280;59918;51.280;7.950;2023-07-16T04:00:26;97601.59;;;18.07
72054;BMP280;59918;51.280;7.950;2023-07-16T04:02:52;97600.81;;;18.06
72054;BMP280;59918;51.280;7.950;2023-07-16T04:05:17;97606.28;;;18.05
72054;BMP280;59918;51.280;7.950;2023-07-16T04:07:43;97609.66;;;18.00
72054;BMP280;59918;51.280;7.950;2023-07-16T04:10:08;97610.41;;;17.96
72054;BMP280;59918;51.280;7.950;2023-07-16T04:12:33;97609.13;;;17.93
72054;BMP280;59918;51.280;7.950;2023-07-16T04:15:07;97613.50;;;17.93
72054;BMP280;59918;51.280;7.950;2023-07-16T04:17:32;97610.38;;;17.91
72054;BMP280;59918;51.280;7.950;2023-07-16T04:20:04;97614.28;;;17.89
72054;BMP280;59918;51.280;7.950;2023-07-16T04:22:29;97616.09;;;17.88
72054;BMP280;59918;51.280;7.950;2023-07-16T04:24:55;97617.13;;;17.87
72054;BMP280;59918;51.280;7.950;2023-07-16T04:27:20;97618.72;;;17.88
72054;BMP280;59918;51.280;7.950;2023-07-16T04:29:45;97624.41;;;17.85
72054;BMP280;59918;51.280;7.950;2023-07-16T04:32:17;97612.72;;;17.88
72054;BMP280;59918;51.280;7.950;2023-07-16T04:34:42;97616.34;;;17.87
72054;BMP280;59918;51.280;7.950;2023-07-16T04:37:07;97617.94;;;17.88
72054;BMP280;59918;51.280;7.950;2023-07-16T04:39:32;97615.88;;;17.90
72054;BMP280;59918;51.280;7.950;2023-07-16T04:41:58;97613.50;;;17.88
72054;BMP280;59918;51.280;7.950;2023-07-16T04:44:29;97615.34;;;17.92
72054;BMP280;59918;51.280;7.950;2023-07-16T04:46:54;97631.72;;;17.93
72054;BMP280;59918;51.280;7.950;2023-07-16T04:49:19;97625.50;;;17.94
72054;BMP280;59918;51.280;7.950;2023-07-16T04:51:44;97642.16;;;17.98
72054;BMP280;59918;51.280;7.950;2023-07-16T04:54:10;97641.91;;;17.99
72054;BMP280;59918;51.280;7.950;2023-07-16T04:56:40;97635.94;;;18.04
72054;BMP280;59918;51.280;7.950;2023-07-16T04:59:06;97637.50;;;18.05
72054;BMP280;59918;51.280;7.950;2023-07-16T05:01:31;97640.09;;;18.05
72054;BMP280;59918;51.280;7.950;2023-07-16T05:03:56;97639.84;;;18.06
72054;BMP280;59918;51.280;7.950;2023-07-16T05:06:21;97659.94;;;18.11
72054;BMP280;59918;51.280;7.950;2023-07-16T05:08:47;97658.38;;;18.15
72054;BMP280;59918;51.280;7.950;2023-07-16T05:11:15;97661.50;;;18.17
72054;BMP280;59918;51.280;7.950;2023-07-16T05:13:40;97665.19;;;18.21
72054;BMP280;59918;51.280;7.950;2023-07-16T05:16:05;97657.91;;;18.23
72054;BMP280;59918;51.280;7.950;2023-07-16T05:18:31;97667.03;;;18.25
72054;BMP280;59918;51.280;7.950;2023-07-16T05:20:56;97671.19;;;18.26
72054;BMP280;59918;51.280;7.950;2023-07-16T05:23:21;97676.66;;;18.25
72054;BMP280;59918;51.280;7.950;2023-07-16T05:25:52;97669.88;;;18.24
72054;BMP280;59918;51.280;7.950;2023-07-16T05:28:20;97664.69;;;18.28
72054;BMP280;59918;51.280;7.950;2023-07-16T05:30:45;97684.53;;;18.34
72054;BMP280;59918;51.280;7.950;2023-07-16T05:33:11;97674.34;;;18.38
72054;BMP280;59918;51.280;7.950;2023-07-16T05:35:39;97670.25;;;18.47
72054;BMP280;59918;51.280;7.950;2023-07-16T05:38:05;97667.38;;;18.53
72054;BMP280;59918;51.280;7.950;2023-07-16T05:40:30;97679.91;;;18.56
72054;BMP280;59918;51.280;7.950;2023-07-16T05:42:55;97669.25;;;18.63
72054;BMP280;59918;51.280;7.950;2023-07-16T05:45:20;97679.94;;;18.76
72054;BMP280;59918;51.280;7.950;2023-07-16T05:47:46;97677.88;;;18.83
72054;BMP280;59918;51.280;7.950;2023-07-16T05:50:11;97680.75;;;18.86
72054;BMP280;59918;51.280;7.950;2023-07-16T05:52:39;97679.19;;;18.90
72054;BMP280;59918;51.280;7.950;2023-07-16T05:55:05;97678.19;;;19.06
72054;BMP280;59918;51.280;7.950;2023-07-16T05:57:30;97682.38;;;19.12
72054;BMP280;59918;51.280;7.950;2023-07-16T05:59:55;97689.91;;;19.18
72054;BMP280;59918;51.280;7.950;2023-07-16T06:02:20;97686.78;;;19.26
72054;BMP280;59918;51.280;7.950;2023-07-16T06:04:45;97696.19;;;19.37
72054;BMP280;59918;51.280;7.950;2023-07-16T06:07:18;97693.56;;;19.42
72054;BMP280;59918;51.280;7.950;2023-07-16T06:09:43;97698.25;;;19.40
72054;BMP280;59918;51.280;7.950;2023-07-16T06:12:08;97695.13;;;19.38
72054;BMP280;59918;51.280;7.950;2023-07-16T06:14:34;97707.41;;;19.52
72054;BMP280;59918;51.280;7.950;2023-07-16T06:16:59;97709.72;;;19.78
72054;BMP280;59918;51.280;7.950;2023-07-16T06:19:30;97710.00;;;19.82
72054;BMP280;59918;51.280;7.950;2023-07-16T06:21:55;97716.00;;;19.97
72054;BMP280;59918;51.280;7.950;2023-07-16T06:24:21;97718.53;;;20.22
72054;BMP280;59918;51.280;7.950;2023-07-16T06:26:46;97710.72;;;20.17
72054;BMP280;59918;51.280;7.950;2023-07-16T06:29:11;97721.44;;;20.06
72054;BMP280;59918;51.280;7.950;2023-07-16T06:31:42;97726.13;;;20.09
72054;BMP280;59918;51.280;7.950;2023-07-16T06:34:08;97719.63;;;19.96
72054;BMP280;59918;51.280;7.950;2023-07-16T06:36:33;97729.31;;;19.76
72054;BMP280;59918;51.280;7.950;2023-07-16T06:38:58;97729.03;;;19.73
72054;BMP280;59918;51.280;7.950;2023-07-16T06:41:24;97736.06;;;19.97
72054;BMP280;59918;51.280;7.950;2023-07-16T06:43:52;97722.25;;;19.96
72054;BMP280;59918;51.280;7.950;2023-07-16T06:46:17;97718.09;;;19.85
72054;BMP280;59918;51.280;7.950;2023-07-16T06:48:42;97736.09;;;19.87
72054;BMP280;59918;51.280;7.950;2023-07-16T06:51:08;97737.94;;;19.91
72054;BMP280;59918;51.280;7.950;2023-07-16T06:53:33;97730.88;;;19.92
72054;BMP280;59918;51.280;7.950;2023-07-16T06:55:58;97739.47;;;19.92
72054;BMP280;59918;51.280;7.950;2023-07-16T06:58:31;97730.34;;;19.90
72054;BMP280;59918;51.280;7.950;2023-07-16T07:00:57;97721.41;;;20.11
72054;BMP280;59918;51.280;7.950;2023-07-16T07:03:22;97711.19;;;20.24
72054;BMP280;59918;51.280;7.950;2023-07-16T07:05:54;97734.94;;;20.37
72054;BMP280;59918;51.280;7.950;2023-07-16T07:08:20;97734.94;;;20.42
72054;BMP280;59918;51.280;7.950;2023-07-16T07:10:48;97734.06;;;20.56
72054;BMP280;59918;51.280;7.950;2023-07-16T07:13:16;97743.22;;;20.64
72054;BMP280;59918;51.280;7.950;2023-07-16T07:15:42;97736.47;;;20.48
72054;BMP280;59918;51.280;7.950;2023-07-16T07:18:07;97740.97;;;20.28
72054;BMP280;59918;51.280;7.950;2023-07-16T07:20:32;97746.69;;;20.35
72054;BMP280;59918;51.280;7.950;2023-07-16T07:22:57;97736.16;;;20.54
72054;BMP280;59918;51.280;7.950;2023-07-16T07:25:23;97756.25;;;20.59
72054;BMP280;59918;51.280;7.950;2023-07-16T07:27:48;97739.03;;;20.58
72054;BMP280;59918;51.280;7.950;2023-07-16T07:30:16;97731.47;;;20.56
72054;BMP280;59918;51.280;7.950;2023-07-16T07:32:41;97730.16;;;20.64
72054;BMP280;59918;51.280;7.950;2023-07-16T07:35:07;97724.84;;;20.79
72054;BMP280;59918;51.280;7.950;2023-07-16T07:37:32;97740.66;;;21.02
72054;BMP280;59918;51.280;7.950;2023-07-16T07:39:58;97734.22;;;21.27
72054;BMP280;59918;51.280;7.950;2023-07-16T07:42:23;97727.47;;;21.22
72054;BMP280;59918;51.280;7.950;2023-07-16T07:44:53;97739.66;;;21.41
72054;BMP280;59918;51.280;7.950;2023-07-16T07:47:18;97735.41;;;21.50
72054;BMP280;59918;51.280;7.950;2023-07-16T07:49:43;97730.22;;;21.73
72054;BMP280;59918;51.280;7.950;2023-07-16T07:52:11;97730.34;;;21.86
72054;BMP280;59918;51.280;7.950;2023-07-16T07:54:42;97734.94;;;21.99
72054;BMP280;59918;51.280;7.950;2023-07-16T07:57:07;97723.06;;;22.06
72054;BMP280;59918;51.280;7.950;2023-07-16T07:59:35;97726.50;;;22.07
72054;BMP280;59918;51.280;7.950;2023-07-16T08:02:04;97746.00;;;22.24
72054;BMP280;59918;51.280;7.950;2023-07-16T08:04:29;97736.56;;;22.23
72054;BMP280;59918;51.280;7.950;2023-07-16T08:06:55;97743.06;;;22.26
72054;BMP280;59918;51.280;7.950;2023-07-16T08:09:20;97742.53;;;22.29
72054;BMP280;59918;51.280;7.950;2023-07-16T08:11:45;97757.47;;;22.28
72054;BMP280;59918;51.280;7.950;2023-07-16T08:14:10;97773.72;;;22.25
72054;BMP280;59918;51.280;7.950;2023-07-16T08:16:36;97743.13;;;22.21
72054;BMP280;59918;51.280;7.950;2023-07-16T08:19:04;97748.03;;;22.27
72054;BMP280;59918;51.280;7.950;2023-07-16T08:21:29;97774.28;;;22.45
72054;BMP280;59918;51.280;7.950;2023-07-16T08:23:55;97771.56;;;22.32
72054;BMP280;59918;51.280;7.950;2023-07-16T08:26:20;97750.41;;;22.24
72054;BMP280;59918;51.280;7.950;2023-07-16T08:28:45;97750.03;;;22.35
72054;BMP280;59918;51.280;7.950;2023-07-16T08:31:11;97742.78;;;22.50
72054;BMP280;59918;51.280;7.950;2023-07-16T08:33:43;97750.44;;;22.47
72054;BMP280;59918;51.280;7.950;2023-07-16T08:36:10;97760.09;;;22.28
72054;BMP280;59918;51.280;7.950;2023-07-16T08:38:35;97750.75;;;22.17
72054;BMP280;59918;51.280;7.950;2023-07-16T08:41:04;97763.47;;;22.29
72054;BMP280;59918;51.280;7.950;2023-07-16T08:43:29;97753.44;;;22.35
72054;BMP280;59918;51.280;7.950;2023-07-16T08:45:55;97759.13;;;22.66
72054;BMP280;59918;51.280;7.950;2023-07-16T08:48:21;97756.78;;;22.87
72054;BMP280;59918;51.280;7.950;2023-07-16T08:50:47;97752.25;;;22.93
72054;BMP280;59918;51.280;7.950;2023-07-16T08:53:21;97764.72;;;23.01
72054;BMP280;59918;51.280;7.950;2023-07-16T08:55:47;97754.78;;;22.98
72054;BMP280;59918;51.280;7.950;2023-07-16T08:58:17;97764.44;;;23.02
72054;BMP280;59918;51.280;7.950;2023-07-16T09:00:43;97756.22;;;23.27
72054;BMP280;59918;51.280;7.950;2023-07-16T09:03:11;97768.63;;;23.21
72054;BMP280;59918;51.280;7.950;2023-07-16T09:05:40;97762.09;;;23.55
72054;BMP280;59918;51.280;7.950;2023-07-16T09:08:05;97764.50;;;23.70
72054;BMP280;59918;51.280;7.950;2023-07-16T09:10:31;97765.47;;;23.74
72054;BMP280;59918;51.280;7.950;2023-07-16T09:12:58;97765.22;;;23.89
72054;BMP280;59918;51.280;7.950;2023-07-16T09:15:23;97767.47;;;23.95
72054;BMP280;59918;51.280;7.950;2023-07-16T09:17:55;97779.63;;;23.91
72054;BMP280;59918;51.280;7.950;2023-07-16T09:20:21;97769.84;;;23.65
72054;BMP280;59918;51.280;7.950;2023-07-16T09:22:47;97769.41;;;23.58
72054;BMP280;59918;51.280;7.950;2023-07-16T09:25:13;97764.66;;;23.60
72054;BMP280;59918;51.280;7.950;2023-07-16T09:27:38;97773.13;;;23.71
72054;BMP280;59918;51.280;7.950;2023-07-16T09:30:14;97773.16;;;23.52
72054;BMP280;59918;51.280;7.950;2023-07-16T09:32:39;97771.16;;;23.63
72054;BMP280;59918;51.280;7.950;2023-07-16T09:35:16;97777.63;;;23.70
72054;BMP280;59918;51.280;7.950;2023-07-16T09:37:44;97782.31;;;23.86
72054;BMP280;59918;51.280;7.950;2023-07-16T09:40:11;97781.88;;;23.98
72054;BMP280;59918;51.280;7.950;2023-07-16T09:42:40;97775.47;;;24.04
72054;BMP280;59918;51.280;7.950;2023-07-16T09:45:07;97777.41;;;24.30
72054;BMP280;59918;51.280;7.950;2023-07-16T09:47:39;97772.72;;;24.80
72054;BMP280;59918;51.280;7.950;2023-07-16T09:50:04;97767.25;;;25.03
72054;BMP280;59918;51.280;7.950;2023-07-16T09:52:31;97770.75;;;24.86
72054;BMP280;59918;51.280;7.950;2023-07-16T09:54:56;97775.44;;;25.02
72054;BMP280;59918;51.280;7.950;2023-07-16T09:57:25;97772.81;;;25.37
72054;BMP280;59918;51.280;7.950;2023-07-16T09:59:52;97779.69;;;25.11
72054;BMP280;59918;51.280;7.950;2023-07-16T10:02:20;97791.59;;;24.82
72054;BMP280;59918;51.280;7.950;2023-07-16T10:04:46;97799.59;;;24.64
72054;BMP280;59918;51.280;7.950;2023-07-16T10:07:25;97794.06;;;24.65
72054;BMP280;59918;51.280;7.950;2023-07-16T10:09:54;97781.78;;;25.01
72054;BMP280;59918;51.280;7.950;2023-07-16T10:12:21;97783.47;;;25.32
72054;BMP280;59918;51.280;7.950;2023-07-16T10:17:17;97788.59;;;25.37
72054;BMP280;59918;51.280;7.950;2023-07-16T10:19:54;97777.97;;;26.07
72054;BMP280;59918;51.280;7.950;2023-07-16T10:22:40;97783.44;;;26.41
72054;BMP280;59918;51.280;7.950;2023-07-16T10:25:10;97778.19;;;26.19
72054;BMP280;59918;51.280;7.950;2023-07-16T10:27:36;97788.50;;;25.42
72054;BMP280;59918;51.280;7.950;2023-07-16T10:30:03;97779.41;;;25.48
72054;BMP280;59918;51.280;7.950;2023-07-16T10:32:30;97782.09;;;26.21
72054;BMP280;59918;51.280;7.950;2023-07-16T10:34:59;97798.34;;;25.93
72054;BMP280;59918;51.280;7.950;2023-07-16T10:37:25;97790.16;;;25.38
72054;BMP280;59918;51.280;7.950;2023-07-16T10:39:52;97798.44;;;24.96
72054;BMP280;59918;51.280;7.950;2023-07-16T10:42:25;97794.78;;;26.19
72054;BMP280;59918;51.280;7.950;2023-07-16T10:44:58;97789.84;;;26.95
72054;BMP280;59918;51.280;7.950;2023-07-16T10:47:25;97785.88;;;27.64
72054;BMP280;59918;51.280;7.950;2023-07-16T10:49:51;97799.06;;;26.67
72054;BMP280;59918;51.280;7.950;2023-07-16T10:52:16;97794.78;;;26.19
72054;BMP280;59918;51.280;7.950;2023-07-16T10:54:42;97780.59;;;27.64
72054;BMP280;59918;51.280;7.950;2023-07-16T10:57:13;97796.16;;;28.45
72054;BMP280;59918;51.280;7.950;2023-07-16T10:59:39;97801.44;;;28.82
72054;BMP280;59918;51.280;7.950;2023-07-16T11:02:08;97780.22;;;29.19
72054;BMP280;59918;51.280;7.950;2023-07-16T11:04:36;97777.69;;;29.63
72054;BMP280;59918;51.280;7.950;2023-07-16T11:07:09;97780.28;;;29.71
72054;BMP280;59918;51.280;7.950;2023-07-16T11:09:46;97799.38;;;28.05
72054;BMP280;59918;51.280;7.950;2023-07-16T11:12:16;97786.91;;;28.05
72054;BMP280;59918;51.280;7.950;2023-07-16T11:14:49;97802.19;;;29.11
72054;BMP280;59918;51.280;7.950;2023-07-16T11:17:15;97781.59;;;30.53
72054;BMP280;59918;51.280;7.950;2023-07-16T11:19:41;97794.41;;;30.27
72054;BMP280;59918;51.280;7.950;2023-07-16T11:22:07;97784.72;;;30.79
72054;BMP280;59918;51.280;7.950;2023-07-16T11:24:47;97795.94;;;29.96
72054;BMP280;59918;51.280;7.950;2023-07-16T11:27:24;97811.34;;;28.93
72054;BMP280;59918;51.280;7.950;2023-07-16T11:29:55;97789.44;;;29.74
72054;BMP280;59918;51.280;7.950;2023-07-16T11:32:35;97792.66;;;30.67
72054;BMP280;59918;51.280;7.950;2023-07-16T11:35:05;97784.63;;;32.04
72054;BMP280;59918;51.280;7.950;2023-07-16T11:37:35;97792.22;;;32.48
72054;BMP280;59918;51.280;7.950;2023-07-16T11:40:06;97792.06;;;32.87
72054;BMP280;59918;51.280;7.950;2023-07-16T11:42:41;97793.31;;;33.61
72054;BMP280;59918;51.280;7.950;2023-07-16T11:47:45;97810.03;;;30.20
72054;BMP280;59918;51.280;7.950;2023-07-16T11:50:10;97796.78;;;30.20
72054;BMP280;59918;51.280;7.950;2023-07-16T11:52:36;97799.84;;;30.43
72054;BMP280;59918;51.280;7.950;2023-07-16T11:55:01;97795.78;;;29.61
72054;BMP280;59918;51.280;7.950;2023-07-16T11:57:27;97808.22;;;30.01
72054;BMP280;59918;51.280;7.950;2023-07-16T11:59:52;97791.50;;;31.51
72054;BMP280;59918;51.280;7.950;2023-07-16T12:02:20;97792.84;;;32.72
72054;BMP280;59918;51.280;7.950;2023-07-16T12:04:48;97793.41;;;31.15
72054;BMP280;59918;51.280;7.950;2023-07-16T12:07:14;97800.84;;;31.21
72054;BMP280;59918;51.280;7.950;2023-07-16T12:09:39;97783.09;;;31.49
72054;BMP280;59918;51.280;7.950;2023-07-16T12:12:05;97800.88;;;32.30
72054;BMP280;59918;51.280;7.950;2023-07-16T12:14:31;97798.16;;;33.37
72054;BMP280;59918;51.280;7.950;2023-07-16T12:17:00;97794.16;;;33.46
72054;BMP280;59918;51.280;7.950;2023-07-16T12:19:25;97793.09;;;33.16
72054;BMP280;59918;51.280;7.950;2023-07-16T12:21:50;97801.69;;;33.25
72054;BMP280;59918;51.280;7.950;2023-07-16T12:24:16;97790.81;;;31.81
72054;BMP280;59918;51.280;7.950;2023-07-16T12:26:43;97801.06;;;30.69
72054;BMP280;59918;51.280;7.950;2023-07-16T12:29:13;97790.03;;;31.53
72054;BMP280;59918;51.280;7.950;2023-07-16T12:31:39;97786.63;;;30.90
72054;BMP280;59918;51.280;7.950;2023-07-16T12:34:04;97790.19;;;32.57
72054;BMP280;59918;51.280;7.950;2023-07-16T12:36:30;97774.63;;;34.17
72054;BMP280;59918;51.280;7.950;2023-07-16T12:38:55;97776.28;;;35.79
72054;BMP280;59918;51.280;7.950;2023-07-16T12:41:23;97771.56;;;36.02
72054;BMP280;59918;51.280;7.950;2023-07-16T12:43:49;97770.84;;;36.47
72054;BMP280;59918;51.280;7.950;2023-07-16T12:46:14;97775.97;;;37.16
72054;BMP280;59918;51.280;7.950;2023-07-16T12:48:39;97779.63;;;36.87
72054;BMP280;59918;51.280;7.950;2023-07-16T12:51:04;97781.41;;;36.27
72054;BMP280;59918;51.280;7.950;2023-07-16T12:53:30;97775.16;;;35.80
72054;BMP280;59918;51.280;7.950;2023-07-16T12:55:55;97785.25;;;34.36
72054;BMP280;59918;51.280;7.950;2023-07-16T12:58:26;97779.00;;;34.28
72054;BMP280;59918;51.280;7.950;2023-07-16T13:00:51;97778.47;;;34.64
72054;BMP280;59918;51.280;7.950;2023-07-16T13:03:17;97771.00;;;36.22
72054;BMP280;59918;51.280;7.950;2023-07-16T13:05:43;97759.88;;;37.09
72054;BMP280;59918;51.280;7.950;2023-07-16T13:08:12;97763.53;;;36.41
72054;BMP280;59918;51.280;7.950;2023-07-16T13:10:37;97780.78;;;34.88
72054;BMP280;59918;51.280;7.950;2023-07-16T13:13:02;97782.53;;;33.54
72054;BMP280;59918;51.280;7.950;2023-07-16T13:15:27;97778.78;;;33.77
72054;BMP280;59918;51.280;7.950;2023-07-16T13:17:53;97781.69;;;34.51
72054;BMP280;59918;51.280;7.950;2023-07-16T13:20:18;97788.69;;;33.39
72054;BMP280;59918;51.280;7.950;2023-07-16T13:22:43;97790.63;;;31.74
72054;BMP280;59918;51.280;7.950;2023-07-16T13:25:12;97791.56;;;31.15
72054;BMP280;59918;51.280;7.950;2023-07-16T13:27:37;97797.50;;;30.29
72054;BMP280;59918;51.280;7.950;2023-07-16T13:30:03;97797.44;;;29.85
72054;BMP280;59918;51.280;7.950;2023-07-16T13:32:28;97799.38;;;29.97
72054;BMP280;59918;51.280;7.950;2023-07-16T13:34:54;97793.59;;;29.42
72054;BMP280;59918;51.280;7.950;2023-07-16T13:37:23;97804.28;;;28.77
72054;BMP280;59918;51.280;7.950;2023-07-16T13:39:48;97808.28;;;28.46
72054;BMP280;59918;51.280;7.950;2023-07-16T13:42:13;97807.00;;;28.89
72054;BMP280;59918;51.280;7.950;2023-07-16T13:44:39;97802.78;;;28.96
72054;BMP280;59918;51.280;7.950;2023-07-16T13:47:04;97801.41;;;28.90
72054;BMP280;59918;51.280;7.950;2023-07-16T13:49:29;97801.34;;;28.70
72054;BMP280;59918;51.280;7.950;2023-07-16T13:51:55;97802.84;;;29.08
72054;BMP280;59918;51.280;7.950;2023-07-16T13:54:23;97808.56;;;30.43
72054;BMP280;59918;51.280;7.950;2023-07-16T13:56:48;97810.53;;;30.02
72054;BMP280;59918;51.280;7.950;2023-07-16T13:59:14;97809.63;;;29.26
72054;BMP280;59918;51.280;7.950;2023-07-16T14:01:39;97823.56;;;29.06
72054;BMP280;59918;51.280;7.950;2023-07-16T14:04:05;97803.03;;;31.97
72054;BMP280;59918;51.280;7.950;2023-07-16T14:06:30;97797.16;;;34.01
72054;BMP280;59918;51.280;7.950;2023-07-16T14:09:01;97799.78;;;33.07
72054;BMP280;59918;51.280;7.950;2023-07-16T14:11:26;97808.94;;;31.01
72054;BMP280;59918;51.280;7.950;2023-07-16T14:13:52;97811.16;;;29.67
72054;BMP280;59918;51.280;7.950;2023-07-16T14:16:18;97817.84;;;28.96
72054;BMP280;59918;51.280;7.950;2023-07-16T14:18:43;97808.78;;;29.34
72054;BMP280;59918;51.280;7.950;2023-07-16T14:21:11;97792.97;;;32.18